Terminal Aerodrome Forecast
Issued by NWS Corpus Christi, TX

Home | Current Version | Previous Version | Text Only | Print | Product List | Glossary On
Versions: 1 2 3 4 5 6 7 8 9 10 11 12 13 14
000
FTUS44 KCRP 260534
TAFVCT
TAF
KVCT 260534Z 2606/2706 17015G25KT P6SM BKN018
     FM260800 17012KT P6SM OVC015
     FM261500 18015G22KT P6SM BKN025
     FM261900 16018G25KT P6SM SCT025
     FM270300 16014KT P6SM OVC025=

USA.gov is the U.S. government's official web portal to all federal, state and local government web resources and services.